createdAt,value
2019-06-19T00:02:08.074Z,22.92
2019-06-19T00:04:38.652Z,22.92
2019-06-19T00:07:09.430Z,22.86
2019-06-19T00:09:42.114Z,22.86
2019-06-19T00:12:12.465Z,22.89
2019-06-19T00:14:42.882Z,22.90
2019-06-19T00:17:13.279Z,22.91
2019-06-19T00:19:43.848Z,22.98
2019-06-19T00:22:14.191Z,22.97
2019-06-19T00:24:46.918Z,22.98
2019-06-19T00:27:16.869Z,22.99
2019-06-19T00:29:47.283Z,22.97
2019-06-19T00:32:17.686Z,23.03
2019-06-19T00:34:50.898Z,23.05
2019-06-19T00:37:21.207Z,23.07
2019-06-19T00:39:51.927Z,23.04
2019-06-19T00:42:22.330Z,23.06
2019-06-19T00:44:52.804Z,23.03
2019-06-19T00:47:23.193Z,23.00
2019-06-19T00:49:53.534Z,23.01
2019-06-19T00:52:24.415Z,22.93
2019-06-19T00:55:13.606Z,22.92
2019-06-19T00:57:44.386Z,22.92
2019-06-19T01:00:15.800Z,22.92
2019-06-19T01:02:46.266Z,22.96
2019-06-19T01:05:17.523Z,22.98
2019-06-19T01:07:47.907Z,23.00
2019-06-19T01:10:20.888Z,23.00
2019-06-19T01:12:50.906Z,23.04
2019-06-19T01:15:21.892Z,23.10
2019-06-19T01:17:52.216Z,23.10
2019-06-19T01:20:22.612Z,23.07
2019-06-19T01:22:53.332Z,22.91
2019-06-19T01:25:24.018Z,22.80
2019-06-19T01:27:54.539Z,22.70
2019-06-19T01:30:24.861Z,22.62
2019-06-19T01:32:55.595Z,22.62
2019-06-19T01:35:26.533Z,22.66
2019-06-19T01:37:56.859Z,22.64
2019-06-19T01:40:28.003Z,22.64
2019-06-19T01:42:58.423Z,22.62
2019-06-19T01:45:30.899Z,22.60
2019-06-19T01:48:01.359Z,22.57
2019-06-19T01:50:32.065Z,22.54
2019-06-19T01:53:37.178Z,22.51
2019-06-19T01:56:07.661Z,22.54
2019-06-19T01:58:37.987Z,22.47
2019-06-19T02:01:10.950Z,22.52
2019-06-19T02:03:41.473Z,22.56
2019-06-19T02:06:12.425Z,22.65
2019-06-19T02:08:43.124Z,22.78
2019-06-19T02:11:13.526Z,22.79
2019-06-19T02:13:46.881Z,22.77
2019-06-19T02:16:17.299Z,22.73
2019-06-19T02:18:47.655Z,22.74
2019-06-19T02:21:18.017Z,22.80
2019-06-19T02:23:50.408Z,22.75
2019-06-19T02:26:21.271Z,22.73
2019-06-19T02:28:51.826Z,22.76
2019-06-19T02:31:22.653Z,22.78
2019-06-19T02:33:53.156Z,22.75
2019-06-19T02:36:23.459Z,22.74
2019-06-19T02:38:55.551Z,22.74
2019-06-19T02:41:25.994Z,22.77
2019-06-19T02:43:56.333Z,22.80
2019-06-19T02:46:27.558Z,22.87
2019-06-19T02:48:58.126Z,22.85
2019-06-19T02:51:28.499Z,22.94
2019-06-19T02:53:58.831Z,22.96
2019-06-19T02:56:29.469Z,23.00
2019-06-19T02:58:59.898Z,23.03
2019-06-19T03:01:30.735Z,23.10
2019-06-19T03:04:01.144Z,23.13
2019-06-19T03:06:31.481Z,23.29
2019-06-19T03:09:01.777Z,23.49
2019-06-19T03:11:32.254Z,23.87
2019-06-19T03:14:02.724Z,24.31
2019-06-19T03:16:33.192Z,24.86
2019-06-19T03:19:03.687Z,25.15
2019-06-19T03:21:34.098Z,25.49
2019-06-19T03:24:04.498Z,25.93
2019-06-19T03:26:34.976Z,26.09
2019-06-19T03:29:07.426Z,26.17
2019-06-19T03:31:37.873Z,26.04
2019-06-19T03:34:08.352Z,25.96
2019-06-19T03:36:38.696Z,25.89
2019-06-19T03:39:10.420Z,25.73
2019-06-19T03:41:41.670Z,25.83
2019-06-19T03:44:12.925Z,26.43
2019-06-19T03:46:43.680Z,27.33
2019-06-19T03:49:14.234Z,28.15
2019-06-19T03:51:44.784Z,28.44
2019-06-19T03:54:15.182Z,28.11
2019-06-19T03:56:45.641Z,27.73
2019-06-19T03:59:16.062Z,28.27
2019-06-19T04:01:49.697Z,29.05
2019-06-19T04:04:19.705Z,30.02
2019-06-19T04:06:50.278Z,30.82
2019-06-19T04:09:20.642Z,31.00
2019-06-19T04:11:51.140Z,31.13
2019-06-19T04:14:21.488Z,30.28
2019-06-19T04:16:51.935Z,29.97
2019-06-19T04:19:22.446Z,29.29
2019-06-19T04:21:52.826Z,29.08
2019-06-19T04:24:23.591Z,28.67
2019-06-19T04:26:54.486Z,28.59
2019-06-19T04:29:27.604Z,29.06
2019-06-19T04:32:06.197Z,29.83
2019-06-19T04:34:30.346Z,30.68
2019-06-19T04:37:00.761Z,30.58
2019-06-19T04:39:32.289Z,29.84
2019-06-19T04:42:03.670Z,30.22
2019-06-19T04:44:40.724Z,30.97
2019-06-19T04:47:14.634Z,32.23
2019-06-19T04:49:45.972Z,32.81
2019-06-19T04:52:17.434Z,33.90
2019-06-19T04:54:47.803Z,34.51
2019-06-19T04:57:18.299Z,34.79
2019-06-19T04:59:50.091Z,35.54
2019-06-19T05:02:21.581Z,36.69
2019-06-19T05:04:52.010Z,37.03
2019-06-19T05:07:22.359Z,37.03
2019-06-19T05:09:52.714Z,37.49
2019-06-19T05:12:24.383Z,37.45
2019-06-19T05:14:55.410Z,38.06
2019-06-19T05:17:25.735Z,38.14
2019-06-19T05:19:56.176Z,38.05
2019-06-19T05:22:28.169Z,38.64
2019-06-19T05:24:58.692Z,38.97
2019-06-19T05:27:29.156Z,39.14
2019-06-19T05:29:59.531Z,39.73
2019-06-19T05:32:36.631Z,40.65
2019-06-19T05:35:02.086Z,41.86
2019-06-19T05:37:32.512Z,42.98
2019-06-19T05:40:03.947Z,43.78
2019-06-19T05:42:34.383Z,44.38
2019-06-19T05:45:04.889Z,45.16
2019-06-19T05:47:35.241Z,45.22
2019-06-19T05:50:06.316Z,45.62
2019-06-19T05:52:39.560Z,44.24
2019-06-19T05:55:09.966Z,43.91
2019-06-19T05:57:40.444Z,42.87
2019-06-19T06:00:11.131Z,42.03
2019-06-19T06:02:51.481Z,42.01
2019-06-19T06:05:14.312Z,40.31
2019-06-19T06:07:44.960Z,39.21
2019-06-19T06:10:15.546Z,38.78
2019-06-19T06:12:46.335Z,38.49
2019-06-19T06:15:16.963Z,38.23
2019-06-19T06:17:47.389Z,37.54
2019-06-19T06:20:24.438Z,38.20
2019-06-19T06:22:54.853Z,38.40
2019-06-19T06:25:25.186Z,38.39
2019-06-19T06:27:55.915Z,36.96
2019-06-19T06:30:26.352Z,37.05
2019-06-19T06:33:08.261Z,36.85
2019-06-19T06:35:28.881Z,36.85
2019-06-19T06:37:59.309Z,37.41
2019-06-19T06:40:44.537Z,37.86
2019-06-19T06:43:03.019Z,37.44
2019-06-19T06:45:33.279Z,37.40
2019-06-19T06:48:03.819Z,38.31
2019-06-19T06:50:34.304Z,37.90
2019-06-19T06:53:05.093Z,37.75
2019-06-19T06:55:35.380Z,37.34
2019-06-19T06:58:05.984Z,37.24
2019-06-19T07:00:42.515Z,37.56
2019-06-19T07:03:24.409Z,37.02
2019-06-19T07:05:45.807Z,37.36
2019-06-19T07:08:16.957Z,38.18
2019-06-19T07:10:47.472Z,39.62
2019-06-19T07:13:17.934Z,39.88
2019-06-19T07:15:48.325Z,40.41
2019-06-19T07:18:18.818Z,40.69
2019-06-19T07:20:55.780Z,40.74
2019-06-19T07:23:26.715Z,41.05
2019-06-19T07:25:57.573Z,40.39
2019-06-19T07:28:27.968Z,39.87
2019-06-19T07:30:59.148Z,38.98
2019-06-19T07:33:40.958Z,37.64
2019-06-19T07:36:01.581Z,36.82
2019-06-19T07:38:32.024Z,36.82
2019-06-19T07:41:02.351Z,36.89
2019-06-19T07:43:32.601Z,37.47
2019-06-19T07:46:02.826Z,37.30
2019-06-19T07:48:33.042Z,36.82
2019-06-19T07:51:03.677Z,37.20
2019-06-19T07:53:33.928Z,37.15
2019-06-19T07:56:04.820Z,36.94
2019-06-19T07:58:35.265Z,37.32
2019-06-19T08:01:05.710Z,36.91
2019-06-19T08:03:36.127Z,36.79
2019-06-19T08:06:07.801Z,36.71
2019-06-19T08:08:38.894Z,36.71
2019-06-19T08:11:09.171Z,35.51
2019-06-19T08:13:39.601Z,34.78
2019-06-19T08:16:10.072Z,34.15
2019-06-19T08:18:40.262Z,33.90
2019-06-19T08:21:10.435Z,33.48
2019-06-19T08:23:41.925Z,32.82
2019-06-19T08:26:12.880Z,32.28
2019-06-19T08:28:43.216Z,32.06
2019-06-19T08:31:13.677Z,31.79
2019-06-19T08:33:44.381Z,31.52
2019-06-19T08:36:14.530Z,31.43
2019-06-19T08:38:45.539Z,31.40
2019-06-19T08:41:16.745Z,31.33
2019-06-19T08:43:47.825Z,31.26
2019-06-19T08:46:20.622Z,31.25
2019-06-19T08:48:50.851Z,31.20
2019-06-19T08:51:21.573Z,31.29
2019-06-19T08:53:52.152Z,31.42
2019-06-19T08:56:24.581Z,31.46
2019-06-19T08:58:54.713Z,31.35
2019-06-19T09:01:25.221Z,31.40
2019-06-19T09:03:55.711Z,31.54
2019-06-19T09:06:25.825Z,31.27
2019-06-19T09:08:56.460Z,31.00
2019-06-19T09:11:27.491Z,31.01
2019-06-19T09:13:58.265Z,30.78
2019-06-19T09:16:28.650Z,30.50
2019-06-19T09:18:58.903Z,30.52
2019-06-19T09:21:29.199Z,30.71
2019-06-19T09:24:00.168Z,30.55
2019-06-19T09:26:30.389Z,30.70
2019-06-19T09:29:00.998Z,30.89
2019-06-19T09:31:32.950Z,31.01
2019-06-19T09:34:03.286Z,31.13
2019-06-19T09:36:35.207Z,31.22
2019-06-19T09:39:06.924Z,31.13
2019-06-19T09:41:37.072Z,31.08
2019-06-19T09:44:07.733Z,31.23
2019-06-19T09:46:38.239Z,31.45
2019-06-19T09:49:08.874Z,31.61
2019-06-19T09:51:39.057Z,31.51
2019-06-19T09:54:09.377Z,31.46
2019-06-19T09:56:39.763Z,31.45
2019-06-19T09:59:09.974Z,31.37
2019-06-19T10:01:40.319Z,31.42
2019-06-19T10:04:10.567Z,31.28
2019-06-19T10:06:40.826Z,31.34
2019-06-19T10:09:11.532Z,31.40
2019-06-19T10:11:41.852Z,31.23
2019-06-19T10:14:12.210Z,31.07
2019-06-19T10:16:43.351Z,31.01
2019-06-19T10:19:13.621Z,30.95
2019-06-19T10:21:44.089Z,31.08
2019-06-19T10:24:14.498Z,31.16
2019-06-19T10:26:45.458Z,31.23
2019-06-19T10:29:15.940Z,31.23
2019-06-19T10:31:46.308Z,31.37
2019-06-19T10:34:16.626Z,31.39
2019-06-19T10:36:47.114Z,31.31
2019-06-19T10:39:17.421Z,31.00
2019-06-19T10:41:47.636Z,30.92
2019-06-19T10:44:19.042Z,30.96
2019-06-19T10:46:49.645Z,30.93
2019-06-19T10:49:19.958Z,30.77
2019-06-19T10:51:50.456Z,30.60
2019-06-19T10:54:20.797Z,30.66
2019-06-19T10:56:53.282Z,30.88
2019-06-19T10:59:23.217Z,31.01
2019-06-19T11:01:53.594Z,31.11
2019-06-19T11:04:23.734Z,31.12
2019-06-19T11:06:53.967Z,30.95
2019-06-19T11:09:24.254Z,30.83
2019-06-19T11:11:54.362Z,31.01
2019-06-19T11:14:25.255Z,31.10
2019-06-19T11:16:55.565Z,31.08
2019-06-19T11:19:25.804Z,31.06
2019-06-19T11:21:59.117Z,31.19
2019-06-19T11:24:29.400Z,31.27
2019-06-19T11:26:59.660Z,31.29
2019-06-19T11:29:30.020Z,31.33
2019-06-19T11:32:00.318Z,30.97
2019-06-19T11:34:30.479Z,30.84
2019-06-19T11:37:00.754Z,30.89
2019-06-19T11:39:30.944Z,30.94
2019-06-19T11:42:01.231Z,31.00
2019-06-19T11:44:31.792Z,31.08
2019-06-19T11:47:02.460Z,31.10
2019-06-19T11:49:32.712Z,31.13
2019-06-19T11:52:03.393Z,31.13
2019-06-19T11:54:33.630Z,31.00
2019-06-19T11:57:03.896Z,31.03
2019-06-19T11:59:34.257Z,31.07
2019-06-19T12:02:04.708Z,30.91
2019-06-19T12:04:35.220Z,30.76
2019-06-19T12:07:06.460Z,30.75
2019-06-19T12:09:36.805Z,30.68
2019-06-19T12:12:07.010Z,30.22
2019-06-19T12:14:37.843Z,30.08
2019-06-19T12:17:08.018Z,30.02
2019-06-19T12:19:38.104Z,30.20
2019-06-19T12:22:08.485Z,30.29
2019-06-19T12:24:38.653Z,30.39
2019-06-19T12:27:09.790Z,30.41
2019-06-19T12:29:40.189Z,30.46
2019-06-19T12:32:10.272Z,30.39
2019-06-19T12:34:40.298Z,30.40
2019-06-19T12:37:10.441Z,30.56
2019-06-19T12:39:40.861Z,30.53
2019-06-19T12:42:10.950Z,30.35
2019-06-19T12:44:41.566Z,30.30
2019-06-19T12:47:13.401Z,30.21
2019-06-19T12:49:43.725Z,30.19
2019-06-19T12:52:14.497Z,30.19
2019-06-19T12:54:44.793Z,29.88
2019-06-19T12:57:15.157Z,29.79
2019-06-19T12:59:45.435Z,29.80
2019-06-19T13:02:15.636Z,29.93
2019-06-19T13:04:45.863Z,29.89
2019-06-19T13:07:17.255Z,29.75
2019-06-19T13:09:47.498Z,29.75
2019-06-19T13:12:17.568Z,29.61
2019-06-19T13:14:48.000Z,29.62
2019-06-19T13:17:18.399Z,29.65
2019-06-19T13:19:48.755Z,29.55
2019-06-19T13:22:21.762Z,29.62
2019-06-19T13:24:52.110Z,29.66
2019-06-19T13:27:22.499Z,29.70
2019-06-19T13:29:52.855Z,29.81
2019-06-19T13:32:26.527Z,29.61
2019-06-19T13:34:57.345Z,29.44
2019-06-19T13:37:27.936Z,29.34
2019-06-19T13:39:58.277Z,29.47
2019-06-19T13:42:29.058Z,29.51
2019-06-19T13:44:59.210Z,29.50
2019-06-19T13:47:30.594Z,29.41
2019-06-19T13:50:00.913Z,29.48
2019-06-19T13:52:31.261Z,29.63
2019-06-19T13:55:01.538Z,29.39
2019-06-19T13:57:45.764Z,29.39
2019-06-19T14:00:04.733Z,29.34
2019-06-19T14:02:34.980Z,29.22
2019-06-19T14:05:05.803Z,29.19
2019-06-19T14:07:36.325Z,29.15
2019-06-19T14:10:07.098Z,29.32
2019-06-19T14:12:37.578Z,29.31
2019-06-19T14:15:08.630Z,29.40
2019-06-19T14:17:38.816Z,29.54
2019-06-19T14:20:10.931Z,29.66
2019-06-19T14:22:41.216Z,29.63
2019-06-19T14:25:12.109Z,29.37
2019-06-19T14:27:42.453Z,29.29
2019-06-19T14:30:14.648Z,29.42
2019-06-19T14:32:44.836Z,29.43
2019-06-19T14:35:15.609Z,29.46
2019-06-19T14:37:46.213Z,29.45
2019-06-19T14:40:18.106Z,29.45
2019-06-19T14:42:48.474Z,29.53
2019-06-19T14:45:19.155Z,29.62
2019-06-19T14:47:49.565Z,29.68
2019-06-19T14:50:20.384Z,29.78
2019-06-19T14:52:50.538Z,29.66
2019-06-19T14:55:20.891Z,29.50
2019-06-19T14:57:51.360Z,29.37
2019-06-19T15:00:25.070Z,29.47
2019-06-19T15:02:55.489Z,29.44
2019-06-19T15:05:25.917Z,29.29
2019-06-19T15:08:00.661Z,29.10
2019-06-19T15:10:31.166Z,28.95
2019-06-19T15:13:03.850Z,28.87
2019-06-19T15:15:34.431Z,28.92
2019-06-19T15:18:04.807Z,28.88
2019-06-19T15:20:35.227Z,28.88
2019-06-19T15:23:05.718Z,28.96
2019-06-19T15:25:36.060Z,28.97
2019-06-19T15:28:06.506Z,29.03
2019-06-19T15:30:36.992Z,29.06
2019-06-19T15:33:07.671Z,29.25
2019-06-19T15:35:38.078Z,29.16
2019-06-19T15:38:12.114Z,29.17
2019-06-19T15:40:40.774Z,29.08
2019-06-19T15:43:11.152Z,28.99
2019-06-19T15:45:41.532Z,29.07
2019-06-19T15:48:11.864Z,29.17
2019-06-19T15:50:43.938Z,29.20
2019-06-19T15:53:14.792Z,29.22
2019-06-19T15:55:45.596Z,29.24
2019-06-19T15:58:16.322Z,29.28
2019-06-19T16:00:46.710Z,29.36
2019-06-19T16:03:18.958Z,29.39
2019-06-19T16:05:49.398Z,29.41
2019-06-19T16:08:28.574Z,29.23
2019-06-19T16:10:51.913Z,29.13
2019-06-19T16:13:22.253Z,29.06
2019-06-19T16:15:52.745Z,29.06
2019-06-19T16:18:23.041Z,28.97
2019-06-19T16:20:53.393Z,28.82
2019-06-19T16:23:24.234Z,28.70
2019-06-19T16:25:55.651Z,28.54
2019-06-19T16:28:25.962Z,28.52
2019-06-19T16:30:56.454Z,28.46
2019-06-19T16:33:28.890Z,28.39
2019-06-19T16:35:59.341Z,28.22
2019-06-19T16:38:45.685Z,28.03
2019-06-19T16:41:02.015Z,28.00
2019-06-19T16:43:32.440Z,27.99
2019-06-19T16:46:02.811Z,27.97
2019-06-19T16:48:33.240Z,27.98
2019-06-19T16:51:03.691Z,27.90
2019-06-19T16:53:34.639Z,27.83
2019-06-19T16:56:05.075Z,27.82
2019-06-19T16:58:35.729Z,27.71
2019-06-19T17:01:06.073Z,27.54
2019-06-19T17:03:36.708Z,27.53
2019-06-19T17:06:07.630Z,27.37
2019-06-19T17:08:38.592Z,27.27
2019-06-19T17:11:09.087Z,27.17
2019-06-19T17:13:39.617Z,27.06
2019-06-19T17:16:10.168Z,26.96
2019-06-19T17:18:40.575Z,26.88
2019-06-19T17:21:11.321Z,26.77
2019-06-19T17:23:42.252Z,26.66
2019-06-19T17:26:12.636Z,26.61
2019-06-19T17:28:43.147Z,26.51
2019-06-19T17:31:13.609Z,26.38
2019-06-19T17:33:44.364Z,26.29
2019-06-19T17:36:14.893Z,26.16
2019-06-19T17:38:45.321Z,26.07
2019-06-19T17:41:15.813Z,25.95
2019-06-19T17:43:46.198Z,26.00
2019-06-19T17:46:16.704Z,25.88
2019-06-19T17:48:47.084Z,25.86
2019-06-19T17:51:17.974Z,25.81
2019-06-19T17:53:49.596Z,25.71
2019-06-19T17:56:19.992Z,25.69
2019-06-19T17:58:50.413Z,25.79
2019-06-19T18:01:21.007Z,25.77
2019-06-19T18:03:51.565Z,25.68
2019-06-19T18:06:21.969Z,25.59
2019-06-19T18:08:52.398Z,25.50
2019-06-19T18:11:22.725Z,25.55
2019-06-19T18:13:53.218Z,25.57
2019-06-19T18:16:36.271Z,25.60
2019-06-19T18:18:55.828Z,25.59
2019-06-19T18:21:25.998Z,25.50
2019-06-19T18:23:56.468Z,25.45
2019-06-19T18:26:27.788Z,25.43
2019-06-19T18:28:57.931Z,25.41
2019-06-19T18:31:28.552Z,25.48
2019-06-19T18:33:59.166Z,25.46
2019-06-19T18:36:29.476Z,25.43
2019-06-19T18:38:59.958Z,25.35
2019-06-19T18:41:30.958Z,25.33
2019-06-19T18:44:02.844Z,25.38
2019-06-19T18:46:36.046Z,25.31
2019-06-19T18:49:07.515Z,25.27
2019-06-19T18:51:37.544Z,25.22
2019-06-19T18:54:08.566Z,25.21
2019-06-19T18:56:40.921Z,25.19
2019-06-19T18:59:11.155Z,25.10
2019-06-19T19:01:41.512Z,25.18
2019-06-19T19:04:11.897Z,25.10
2019-06-19T19:06:42.184Z,25.03
2019-06-19T19:09:12.889Z,24.90
2019-06-19T19:11:44.057Z,24.90
2019-06-19T19:14:14.517Z,24.86
2019-06-19T19:16:44.725Z,24.86
2019-06-19T19:19:15.072Z,24.88
2019-06-19T19:21:45.859Z,24.74
2019-06-19T19:24:16.389Z,24.76
2019-06-19T19:26:46.847Z,24.77
2019-06-19T19:29:17.306Z,24.83
2019-06-19T19:31:47.610Z,24.80
2019-06-19T19:34:17.812Z,24.83
2019-06-19T19:36:48.193Z,24.70
2019-06-19T19:39:18.430Z,24.65
2019-06-19T19:41:48.688Z,24.60
2019-06-19T19:44:21.537Z,24.53
2019-06-19T19:46:51.786Z,24.54
2019-06-19T19:49:21.997Z,24.51
2019-06-19T19:51:53.546Z,24.49
2019-06-19T19:54:25.214Z,24.44
2019-06-19T19:56:55.507Z,24.48
2019-06-19T19:59:26.005Z,24.48
2019-06-19T20:01:57.102Z,24.42
2019-06-19T20:04:27.540Z,24.41
2019-06-19T20:07:07.607Z,24.33
2019-06-19T20:09:38.134Z,24.40
2019-06-19T20:12:08.595Z,24.32
2019-06-19T20:14:39.106Z,24.29
2019-06-19T20:17:17.961Z,24.24
2019-06-19T20:19:49.838Z,24.19
2019-06-19T20:22:24.131Z,24.19
2019-06-19T20:24:55.430Z,24.21
2019-06-19T20:27:26.694Z,24.25
2019-06-19T20:29:56.953Z,24.21
2019-06-19T20:32:28.176Z,24.23
2019-06-19T20:35:19.032Z,24.17
2019-06-19T20:38:00.032Z,24.20
2019-06-19T20:40:40.599Z,24.11
2019-06-19T20:43:14.461Z,24.11
2019-06-19T20:45:45.182Z,24.14
2019-06-19T20:48:18.294Z,24.13
2019-06-19T20:50:51.900Z,24.06
2019-06-19T20:53:35.774Z,24.03
2019-06-19T20:56:18.276Z,24.06
2019-06-19T20:59:02.128Z,24.08
2019-06-19T21:01:32.797Z,24.14
2019-06-19T21:04:05.509Z,24.05
2019-06-19T21:06:36.070Z,24.01
2019-06-19T21:09:28.168Z,24.03
2019-06-19T21:12:04.357Z,24.08
2019-06-19T21:14:34.669Z,24.15
2019-06-19T21:17:16.072Z,24.17
2019-06-19T21:20:10.900Z,24.23
2019-06-19T21:22:44.240Z,24.26
2019-06-19T21:25:20.326Z,24.26
2019-06-19T21:27:50.799Z,24.23
2019-06-19T21:30:37.184Z,24.16
2019-06-19T21:33:22.469Z,24.13
2019-06-19T21:35:53.690Z,24.14
2019-06-19T21:38:23.947Z,24.26
2019-06-19T21:40:56.725Z,24.35
2019-06-19T21:43:40.568Z,24.30
2019-06-19T21:46:12.963Z,24.26
2019-06-19T21:48:43.437Z,24.21
2019-06-19T21:51:14.637Z,24.18
2019-06-19T21:53:46.920Z,24.14
2019-06-19T21:56:17.588Z,24.08
2019-06-19T21:58:47.863Z,24.04
2019-06-19T22:01:19.061Z,23.96
2019-06-19T22:03:49.328Z,23.92
2019-06-19T22:06:28.484Z,23.80
2019-06-19T22:08:59.287Z,23.74
2019-06-19T22:11:29.419Z,23.75
2019-06-19T22:13:59.855Z,23.73
2019-06-19T22:16:34.413Z,23.68
2019-06-19T22:19:12.548Z,23.71
2019-06-19T22:22:00.012Z,23.71
2019-06-19T22:24:30.539Z,23.72
2019-06-19T22:27:06.017Z,23.72
2019-06-19T22:29:36.622Z,23.75
2019-06-19T22:32:07.259Z,23.84
2019-06-19T22:34:38.251Z,23.75
2019-06-19T22:37:08.564Z,23.79
2019-06-19T22:39:38.889Z,23.80
2019-06-19T22:42:11.938Z,23.79
2019-06-19T22:44:41.430Z,23.75
2019-06-19T22:47:11.684Z,23.59
2019-06-19T22:49:43.608Z,23.55
2019-06-19T22:52:14.277Z,23.48
2019-06-19T22:54:44.953Z,23.43
2019-06-19T22:57:15.237Z,23.40
2019-06-19T22:59:45.872Z,23.33
2019-06-19T23:02:34.685Z,23.24
2019-06-19T23:05:05.858Z,23.23
2019-06-19T23:07:36.412Z,23.20
2019-06-19T23:10:07.426Z,23.18
2019-06-19T23:12:37.725Z,23.17
2019-06-19T23:15:08.183Z,23.23
2019-06-19T23:17:38.464Z,23.23
2019-06-19T23:20:08.921Z,23.23
2019-06-19T23:22:39.199Z,23.28
2019-06-19T23:25:09.505Z,23.28
2019-06-19T23:27:39.824Z,23.26
2019-06-19T23:30:10.353Z,23.27
2019-06-19T23:32:40.484Z,23.29
2019-06-19T23:35:11.031Z,23.34
2019-06-19T23:37:41.312Z,23.34
2019-06-19T23:40:12.185Z,23.39
2019-06-19T23:42:44.320Z,23.44
2019-06-19T23:45:14.913Z,23.52
2019-06-19T23:47:45.883Z,23.58
2019-06-19T23:50:17.613Z,23.57
2019-06-19T23:52:47.960Z,23.57
2019-06-19T23:55:18.355Z,23.54
2019-06-19T23:57:49.097Z,23.60
